createdAt,value
2019-04-16T00:02:29.707Z,55.20
2019-04-16T00:05:44.356Z,55.14
2019-04-16T00:08:57.287Z,54.83
2019-04-16T00:12:22.856Z,55.23
2019-04-16T00:15:30.174Z,55.49
2019-04-16T00:18:36.926Z,54.99
2019-04-16T00:22:11.551Z,55.34
2019-04-16T00:25:15.676Z,55.04
2019-04-16T00:28:21.942Z,54.57
2019-04-16T00:31:29.244Z,56.01
2019-04-16T00:34:35.577Z,55.73
2019-04-16T00:37:42.171Z,55.45
2019-04-16T00:40:49.702Z,54.87
2019-04-16T00:43:56.049Z,54.67
2019-04-16T00:47:02.441Z,54.79
2019-04-16T00:50:09.278Z,54.99
2019-04-16T00:53:15.699Z,54.54
2019-04-16T00:56:22.211Z,54.58
2019-04-16T00:59:28.494Z,54.54
2019-04-16T01:02:35.038Z,55.45
2019-04-16T01:05:41.917Z,55.36
2019-04-16T01:08:54.780Z,55.34
2019-04-16T01:11:56.500Z,55.02
2019-04-16T01:15:03.615Z,55.70
2019-04-16T01:18:11.627Z,55.67
2019-04-16T01:21:18.021Z,55.92
2019-04-16T01:24:24.466Z,55.69
2019-04-16T01:27:34.019Z,56.14
2019-04-16T01:30:59.063Z,55.20
2019-04-16T01:34:25.806Z,56.12
2019-04-16T01:38:09.217Z,55.81
2019-04-16T01:41:21.628Z,56.79
2019-04-16T01:44:28.651Z,56.69
2019-04-16T01:47:36.979Z,56.80
2019-04-16T01:50:43.755Z,57.25
2019-04-16T01:53:52.299Z,58.08
2019-04-16T01:56:59.992Z,58.03
2019-04-16T02:00:08.547Z,56.98
2019-04-16T02:03:17.825Z,58.23
2019-04-16T02:06:25.923Z,59.22
2019-04-16T02:09:34.703Z,58.28
2019-04-16T02:12:43.841Z,58.93
2019-04-16T02:15:53.159Z,58.88
2019-04-16T02:19:01.277Z,59.69
2019-04-16T02:22:06.612Z,59.21
2019-04-16T02:25:13.026Z,58.85
2019-04-16T02:28:21.655Z,58.16
2019-04-16T02:31:27.622Z,59.60
2019-04-16T02:34:35.247Z,59.57
2019-04-16T02:37:41.521Z,59.33
2019-04-16T02:40:52.926Z,59.99
2019-04-16T02:43:55.881Z,59.18
2019-04-16T02:47:06.213Z,59.79
2019-04-16T02:50:14.231Z,59.58
2019-04-16T02:53:58.451Z,59.38
2019-04-16T02:57:25.717Z,58.55
2019-04-16T03:00:55.708Z,59.08
2019-04-16T03:04:12.279Z,58.44
2019-04-16T03:07:18.556Z,58.30
2019-04-16T03:10:25.081Z,61.01
2019-04-16T03:13:31.529Z,61.85
2019-04-16T03:16:49.657Z,61.85
2019-04-16T03:19:56.390Z,61.30
2019-04-16T03:23:05.895Z,62.49
2019-04-16T03:26:16.388Z,63.68
2019-04-16T03:29:20.421Z,62.29
2019-04-16T03:32:33.426Z,62.22
2019-04-16T03:35:37.264Z,62.41
2019-04-16T03:38:43.835Z,60.94
2019-04-16T03:41:50.604Z,62.39
2019-04-16T03:44:57.905Z,63.26
2019-04-16T03:48:04.335Z,63.18
2019-04-16T03:51:10.771Z,63.29
2019-04-16T03:54:18.888Z,62.23
2019-04-16T03:57:25.437Z,64.07
2019-04-16T04:00:32.266Z,62.74
2019-04-16T04:03:38.670Z,63.07
2019-04-16T04:06:45.053Z,62.87
2019-04-16T04:09:54.319Z,62.31
2019-04-16T04:12:59.590Z,64.35
2019-04-16T04:16:06.076Z,63.79
2019-04-16T04:19:15.725Z,63.56
2019-04-16T04:22:22.699Z,65.29
2019-04-16T04:25:29.909Z,64.81
2019-04-16T04:28:36.217Z,64.37
2019-04-16T04:31:42.779Z,63.92
2019-04-16T04:34:49.596Z,63.54
2019-04-16T04:37:56.787Z,63.82
2019-04-16T04:41:03.233Z,64.17
2019-04-16T04:44:09.874Z,64.88
2019-04-16T04:47:19.359Z,64.49
2019-04-16T04:50:24.222Z,64.56
2019-04-16T04:53:30.606Z,66.18
2019-04-16T04:56:37.455Z,64.65
2019-04-16T04:59:43.827Z,64.58
2019-04-16T05:02:50.397Z,66.28
2019-04-16T05:05:59.838Z,65.57
2019-04-16T05:09:07.428Z,65.00
2019-04-16T05:12:13.815Z,65.53
2019-04-16T05:15:20.466Z,65.80
2019-04-16T05:18:27.875Z,64.41
2019-04-16T05:21:35.581Z,65.77
2019-04-16T05:24:41.938Z,63.74
2019-04-16T05:27:48.295Z,65.53
2019-04-16T05:30:54.575Z,64.89
2019-04-16T05:34:02.419Z,65.43
2019-04-16T05:37:08.752Z,66.94
2019-04-16T05:40:15.729Z,65.45
2019-04-16T05:43:23.002Z,66.63
2019-04-16T05:46:29.733Z,64.62
2019-04-16T05:49:35.980Z,65.67
2019-04-16T05:52:42.351Z,66.42
2019-04-16T05:56:02.938Z,64.89
2019-04-16T05:59:09.697Z,65.72
2019-04-16T06:02:21.211Z,65.63
2019-04-16T06:05:28.125Z,65.80
2019-04-16T06:08:34.706Z,65.59
2019-04-16T06:11:41.462Z,66.52
2019-04-16T06:14:54.039Z,66.70
2019-04-16T06:18:18.537Z,65.42
2019-04-16T06:21:50.910Z,65.90
2019-04-16T06:25:22.385Z,65.50
2019-04-16T06:28:40.050Z,65.68
2019-04-16T06:31:59.999Z,65.87
2019-04-16T06:35:25.927Z,64.59
2019-04-16T06:39:09.575Z,64.71
2019-04-16T06:42:22.481Z,65.12
2019-04-16T06:45:36.970Z,64.97
2019-04-16T06:49:03.650Z,64.41
2019-04-16T06:52:28.094Z,63.74
2019-04-16T06:55:45.891Z,64.21
2019-04-16T06:58:57.460Z,63.84
2019-04-16T07:02:24.884Z,64.06
2019-04-16T07:05:40.515Z,63.84
2019-04-16T07:09:11.968Z,63.28
2019-04-16T07:12:22.947Z,62.58
2019-04-16T07:15:29.342Z,61.28
2019-04-16T07:18:38.698Z,60.92
2019-04-16T07:21:48.728Z,60.06
2019-04-16T07:25:03.821Z,60.06
2019-04-16T07:28:28.733Z,59.43
2019-04-16T07:31:43.767Z,59.90
2019-04-16T07:35:12.029Z,59.31
2019-04-16T07:38:26.542Z,58.44
2019-04-16T07:42:08.631Z,58.59
2019-04-16T07:45:13.106Z,58.91
2019-04-16T07:48:26.063Z,58.41
2019-04-16T07:51:55.540Z,57.56
2019-04-16T07:55:14.442Z,56.35
2019-04-16T07:58:21.018Z,54.92
2019-04-16T08:01:27.272Z,52.42
2019-04-16T08:04:35.622Z,50.97
2019-04-16T08:07:41.652Z,49.04
2019-04-16T08:10:48.233Z,50.36
2019-04-16T08:13:54.523Z,49.91
2019-04-16T08:17:00.886Z,48.00
2019-04-16T08:20:07.425Z,47.59
2019-04-16T08:23:30.502Z,44.44
2019-04-16T08:26:36.912Z,44.44
2019-04-16T08:29:44.820Z,43.08
2019-04-16T08:32:51.174Z,41.17
2019-04-16T08:35:57.714Z,41.35
2019-04-16T08:39:06.471Z,40.39
2019-04-16T08:42:13.104Z,36.22
2019-04-16T08:45:20.703Z,34.41
2019-04-16T08:48:27.498Z,33.39
2019-04-16T08:51:36.953Z,32.62
2019-04-16T08:54:42.207Z,33.99
2019-04-16T08:57:48.567Z,34.37
2019-04-16T09:00:54.994Z,33.76
2019-04-16T09:04:02.954Z,33.30
2019-04-16T09:07:13.154Z,32.88
2019-04-16T09:10:23.823Z,31.25
2019-04-16T09:13:31.535Z,32.50
2019-04-16T09:16:46.068Z,31.47
2019-04-16T09:20:13.053Z,29.71
2019-04-16T09:23:19.533Z,31.53
2019-04-16T09:26:31.787Z,28.46
2019-04-16T09:29:55.697Z,29.44
2019-04-16T09:33:15.405Z,29.34
2019-04-16T09:36:30.729Z,27.59
2019-04-16T09:39:54.869Z,28.44
2019-04-16T09:43:15.713Z,26.89
2019-04-16T09:46:17.634Z,26.35
2019-04-16T09:49:18.981Z,25.73
2019-04-16T09:52:25.791Z,26.57
2019-04-16T09:55:32.167Z,25.99
2019-04-16T09:58:42.323Z,25.99
2019-04-16T10:01:53.087Z,27.38
2019-04-16T10:05:00.122Z,25.27
2019-04-16T10:08:09.544Z,26.19
2019-04-16T10:11:18.167Z,25.74
2019-04-16T10:14:22.973Z,27.57
2019-04-16T10:17:29.531Z,25.34
2019-04-16T10:20:35.893Z,24.95
2019-04-16T10:23:49.037Z,23.97
2019-04-16T10:26:56.943Z,24.62
2019-04-16T10:30:07.944Z,26.10
2019-04-16T10:33:15.119Z,23.27
2019-04-16T10:36:21.543Z,22.54
2019-04-16T10:39:42.120Z,23.28
2019-04-16T10:43:08.178Z,23.07
2019-04-16T10:46:33.593Z,23.07
2019-04-16T10:49:47.154Z,22.42
2019-04-16T10:53:05.015Z,22.17
2019-04-16T10:56:29.278Z,23.81
2019-04-16T10:59:57.634Z,22.86
2019-04-16T11:03:13.446Z,21.01
2019-04-16T11:06:29.391Z,21.23
2019-04-16T11:09:35.850Z,20.96
2019-04-16T11:12:42.201Z,21.49
2019-04-16T11:15:48.723Z,20.60
2019-04-16T11:18:55.420Z,21.22
2019-04-16T11:22:03.866Z,22.17
2019-04-16T11:25:11.442Z,21.49
2019-04-16T11:28:18.179Z,22.32
2019-04-16T11:31:25.167Z,22.05
2019-04-16T11:34:32.227Z,23.50
2019-04-16T11:37:43.584Z,21.74
2019-04-16T11:40:47.241Z,22.51
2019-04-16T11:43:55.487Z,23.70
2019-04-16T11:47:04.254Z,21.91
2019-04-16T11:50:10.775Z,22.23
2019-04-16T11:53:17.377Z,22.02
2019-04-16T11:56:23.883Z,21.86
2019-04-16T11:59:30.795Z,22.23
2019-04-16T12:02:50.276Z,23.49
2019-04-16T12:06:27.093Z,22.20
2019-04-16T12:09:31.391Z,22.09
2019-04-16T12:12:49.824Z,21.03
2019-04-16T12:16:21.267Z,22.07
2019-04-16T12:19:45.847Z,21.91
2019-04-16T12:23:07.575Z,22.77
2019-04-16T12:26:22.928Z,21.28
2019-04-16T12:29:48.955Z,21.18
2019-04-16T12:33:17.186Z,22.13
2019-04-16T12:36:39.962Z,22.01
2019-04-16T12:39:55.540Z,22.01
2019-04-16T12:43:06.934Z,21.75
2019-04-16T12:46:29.111Z,21.67
2019-04-16T12:50:03.685Z,21.63
2019-04-16T12:53:30.435Z,21.92
2019-04-16T12:57:04.735Z,21.42
2019-04-16T13:00:34.005Z,22.44
2019-04-16T13:04:11.770Z,22.17
2019-04-16T13:07:22.683Z,22.43
2019-04-16T13:10:39.054Z,22.28
2019-04-16T13:13:58.973Z,22.81
2019-04-16T13:17:30.529Z,23.40
2019-04-16T13:20:57.338Z,22.76
2019-04-16T13:24:17.129Z,22.69
2019-04-16T13:27:30.767Z,23.46
2019-04-16T13:30:37.204Z,22.71
2019-04-16T13:33:46.177Z,24.79
2019-04-16T13:36:52.266Z,24.25
2019-04-16T13:40:03.274Z,23.56
2019-04-16T13:43:10.780Z,23.34
2019-04-16T13:46:17.226Z,24.95
2019-04-16T13:49:32.379Z,24.74
2019-04-16T13:52:39.091Z,25.56
2019-04-16T13:55:55.385Z,24.22
2019-04-16T13:59:12.006Z,23.81
2019-04-16T14:02:36.445Z,23.94
2019-04-16T14:05:42.919Z,23.79
2019-04-16T14:08:49.292Z,23.79
2019-04-16T14:11:55.691Z,24.54
2019-04-16T14:15:05.710Z,25.12
2019-04-16T14:18:11.635Z,24.57
2019-04-16T14:21:17.943Z,25.22
2019-04-16T14:24:24.314Z,25.20
2019-04-16T14:27:30.926Z,24.82
2019-04-16T14:30:43.868Z,25.32
2019-04-16T14:34:04.137Z,25.04
2019-04-16T14:37:11.451Z,26.38
2019-04-16T14:40:24.777Z,26.84
2019-04-16T14:43:35.568Z,27.86
2019-04-16T14:46:42.019Z,27.02
2019-04-16T14:49:50.869Z,27.55
2019-04-16T14:52:56.889Z,29.01
2019-04-16T14:56:09.831Z,29.01
2019-04-16T14:59:47.204Z,27.96
2019-04-16T15:03:02.212Z,27.96
2019-04-16T15:06:33.499Z,28.28
2019-04-16T15:09:43.693Z,29.53
2019-04-16T15:12:54.839Z,29.29
2019-04-16T15:16:22.212Z,29.80
2019-04-16T15:19:50.295Z,29.28
2019-04-16T15:23:24.523Z,28.52
2019-04-16T15:26:52.335Z,29.44
2019-04-16T15:30:10.351Z,29.30
2019-04-16T15:33:35.806Z,30.80
2019-04-16T15:37:00.367Z,29.78
2019-04-16T15:40:12.496Z,29.95
2019-04-16T15:43:35.101Z,29.63
2019-04-16T15:46:58.438Z,28.75
2019-04-16T15:50:09.361Z,30.81
2019-04-16T15:53:23.874Z,31.38
2019-04-16T15:56:51.891Z,31.70
2019-04-16T16:00:12.853Z,31.18
2019-04-16T16:03:37.307Z,29.99
2019-04-16T16:06:53.860Z,31.93
2019-04-16T16:10:19.179Z,31.26
2019-04-16T16:13:27.147Z,32.59
2019-04-16T16:16:41.679Z,32.59
2019-04-16T16:19:42.001Z,31.33
2019-04-16T16:22:48.427Z,31.26
2019-04-16T16:25:54.838Z,31.70
2019-04-16T16:29:01.432Z,32.10
2019-04-16T16:32:07.783Z,33.60
2019-04-16T16:35:17.212Z,32.29
2019-04-16T16:38:22.706Z,33.85
2019-04-16T16:41:30.101Z,33.85
2019-04-16T16:44:36.427Z,34.02
2019-04-16T16:47:42.863Z,34.73
2019-04-16T16:50:51.657Z,34.21
2019-04-16T16:54:09.322Z,33.59
2019-04-16T16:57:19.497Z,34.67
2019-04-16T17:00:47.889Z,34.87
2019-04-16T17:04:28.627Z,35.13
2019-04-16T17:07:35.003Z,35.07
2019-04-16T17:10:42.657Z,34.79
2019-04-16T17:13:49.303Z,34.51
2019-04-16T17:17:11.252Z,35.70
2019-04-16T17:20:03.772Z,36.76
2019-04-16T17:23:10.038Z,37.57
2019-04-16T17:26:16.750Z,36.84
2019-04-16T17:29:23.260Z,37.01
2019-04-16T17:32:29.841Z,36.25
2019-04-16T17:35:36.281Z,36.54
2019-04-16T17:38:42.562Z,36.87
2019-04-16T17:41:59.183Z,36.87
2019-04-16T17:45:22.483Z,37.08
2019-04-16T17:48:46.248Z,37.86
2019-04-16T17:51:58.273Z,38.22
2019-04-16T17:55:20.722Z,38.54
2019-04-16T17:58:31.387Z,39.22
2019-04-16T18:01:56.623Z,39.53
2019-04-16T18:05:23.547Z,39.46
2019-04-16T18:08:47.391Z,40.19
2019-04-16T18:12:16.998Z,40.05
2019-04-16T18:15:31.050Z,40.38
2019-04-16T18:18:56.420Z,39.80
2019-04-16T18:22:21.732Z,40.07
2019-04-16T18:25:55.496Z,40.51
2019-04-16T18:29:01.867Z,41.71
2019-04-16T18:32:31.858Z,42.41
2019-04-16T18:36:01.912Z,42.91
2019-04-16T18:39:27.810Z,44.49
2019-04-16T18:42:53.292Z,44.58
2019-04-16T18:46:17.399Z,44.50
2019-04-16T18:49:24.309Z,44.04
2019-04-16T18:52:30.681Z,45.62
2019-04-16T18:55:37.200Z,44.81
2019-04-16T18:58:43.710Z,43.64
2019-04-16T19:01:52.502Z,44.53
2019-04-16T19:04:59.119Z,43.41
2019-04-16T19:08:07.098Z,44.23
2019-04-16T19:11:13.658Z,45.45
2019-04-16T19:14:20.138Z,44.11
2019-04-16T19:17:26.475Z,44.02
2019-04-16T19:20:32.733Z,44.93
2019-04-16T19:23:39.180Z,44.15
2019-04-16T19:26:45.608Z,46.47
2019-04-16T19:29:52.115Z,46.77
2019-04-16T19:33:01.008Z,45.87
2019-04-16T19:36:07.087Z,45.95
2019-04-16T19:39:15.345Z,47.97
2019-04-16T19:42:21.972Z,46.94
2019-04-16T19:45:28.535Z,48.10
2019-04-16T19:48:36.284Z,47.11
2019-04-16T19:51:42.931Z,46.79
2019-04-16T19:54:49.270Z,46.76
2019-04-16T19:57:57.491Z,47.67
2019-04-16T20:01:06.175Z,47.07
2019-04-16T20:04:12.776Z,47.10
2019-04-16T20:07:19.205Z,47.28
2019-04-16T20:10:26.528Z,48.37
2019-04-16T20:13:33.033Z,47.91
2019-04-16T20:16:39.513Z,48.00
2019-04-16T20:19:58.602Z,49.55
2019-04-16T20:23:04.948Z,49.62
2019-04-16T20:26:11.412Z,49.58
2019-04-16T20:29:17.767Z,48.99
2019-04-16T20:32:25.277Z,50.26
2019-04-16T20:35:31.520Z,52.50
2019-04-16T20:38:37.951Z,49.97
2019-04-16T20:41:44.677Z,51.22
2019-04-16T20:44:51.012Z,49.49
2019-04-16T20:47:57.574Z,50.91
2019-04-16T20:51:03.981Z,49.52
2019-04-16T20:54:13.828Z,51.31
2019-04-16T20:57:18.572Z,49.79
2019-04-16T21:00:28.644Z,50.18
2019-04-16T21:03:35.314Z,52.90
2019-04-16T21:06:42.234Z,54.26
2019-04-16T21:09:48.704Z,54.25
2019-04-16T21:12:55.671Z,53.00
2019-04-16T21:16:02.954Z,55.17
2019-04-16T21:19:22.087Z,52.96
2019-04-16T21:22:18.354Z,53.49
2019-04-16T21:25:24.662Z,55.03
2019-04-16T21:28:45.605Z,55.89
2019-04-16T21:31:55.966Z,53.01
2019-04-16T21:35:08.145Z,54.69
2019-04-16T21:38:45.188Z,55.02
2019-04-16T21:41:50.451Z,55.39
2019-04-16T21:44:56.723Z,55.39
2019-04-16T21:48:03.661Z,54.50
2019-04-16T21:51:10.007Z,54.49
2019-04-16T21:54:20.197Z,54.50
2019-04-16T21:57:26.593Z,57.51
2019-04-16T22:00:59.794Z,57.33
2019-04-16T22:04:13.197Z,55.78
2019-04-16T22:07:18.393Z,55.91
2019-04-16T22:10:25.809Z,56.50
2019-04-16T22:13:32.603Z,55.64
2019-04-16T22:16:39.037Z,56.35
2019-04-16T22:19:53.854Z,56.96
2019-04-16T22:22:53.578Z,57.69
2019-04-16T22:26:01.458Z,56.38
2019-04-16T22:29:08.073Z,55.86
2019-04-16T22:32:15.377Z,55.42
2019-04-16T22:35:21.666Z,57.54
2019-04-16T22:38:29.802Z,58.28
2019-04-16T22:41:41.548Z,58.05
2019-04-16T22:44:58.149Z,56.36
2019-04-16T22:48:04.573Z,58.29
2019-04-16T22:51:11.767Z,58.38
2019-04-16T22:54:20.714Z,59.96
2019-04-16T22:57:26.147Z,59.98
2019-04-16T23:00:35.595Z,59.76
2019-04-16T23:03:42.362Z,59.21
2019-04-16T23:06:48.789Z,58.54
2019-04-16T23:09:55.265Z,58.49
2019-04-16T23:13:02.004Z,58.77
2019-04-16T23:16:08.411Z,59.61
2019-04-16T23:19:17.477Z,59.30
2019-04-16T23:22:22.931Z,60.88
2019-04-16T23:25:29.248Z,59.86
2019-04-16T23:28:35.878Z,58.76
2019-04-16T23:31:42.230Z,59.17
2019-04-16T23:34:48.909Z,59.72
2019-04-16T23:37:58.303Z,59.35
2019-04-16T23:41:03.403Z,61.04
2019-04-16T23:44:35.871Z,61.58
2019-04-16T23:47:56.630Z,62.50
2019-04-16T23:51:09.847Z,61.72
2019-04-16T23:54:19.763Z,61.96
2019-04-16T23:57:35.663Z,60.83
